Time;durP1;ratioP1;P1;durP2;ratioP2;P2;SDS_P1;SDS_P2;PMS_P1;PMS_P2;Temp;Humidity;BMP_temperature;BMP_pressure;BME280_temperature;BME280_humidity;BME280_pressure;Samples;Min_cycle;Max_cycle;Signal;HPM_P1;HPM_P2
2022/12/16 00:01:08;;;;;;;23.93;18.33;;;-0.40;99.90;;;;;;5053011;28;20595;-51
2022/12/16 00:03:36;;;;;;;22.47;18.80;;;-0.40;99.90;;;;;;5052640;28;20524;-50
2022/12/16 00:06:03;;;;;;;21.53;18.67;;;-0.50;99.90;;;;;;5053054;28;20540;-51
2022/12/16 00:08:33;;;;;;;25.33;18.63;;;-0.40;99.90;;;;;;5052954;28;20473;-50
2022/12/16 00:11:00;;;;;;;24.37;19.30;;;-0.50;99.90;;;;;;5052696;28;20445;-50
2022/12/16 00:13:30;;;;;;;23.53;18.50;;;-0.50;99.90;;;;;;5052498;28;20529;-50
2022/12/16 00:15:57;;;;;;;22.63;18.13;;;-0.40;99.90;;;;;;5052534;28;20560;-50
2022/12/16 00:18:24;;;;;;;21.77;17.63;;;-0.40;99.90;;;;;;5053003;28;20533;-50
2022/12/16 00:20:53;;;;;;;28.60;20.20;;;-0.40;99.90;;;;;;5052744;28;20529;-50
2022/12/16 00:23:21;;;;;;;32.40;22.90;;;-0.60;99.90;;;;;;5052413;28;20954;-50
2022/12/16 00:25:48;;;;;;;25.97;19.00;;;-0.60;99.90;;;;;;5052435;28;20505;-51
2022/12/16 00:28:17;;;;;;;22.73;18.83;;;-0.60;99.90;;;;;;5052607;28;20926;-50
2022/12/16 00:30:47;;;;;;;27.67;19.70;;;-0.50;99.90;;;;;;5052300;28;20998;-50
2022/12/16 00:33:14;;;;;;;25.43;19.50;;;-0.50;99.90;;;;;;5052202;28;20450;-50
2022/12/16 00:35:41;;;;;;;28.47;21.23;;;-0.60;99.90;;;;;;5052505;28;20585;-50
2022/12/16 00:38:08;;;;;;;28.50;19.93;;;-0.60;99.90;;;;;;5052472;28;20973;-50
2022/12/16 00:40:35;;;;;;;26.40;19.13;;;-0.50;99.90;;;;;;5052055;28;20962;-50
2022/12/16 00:43:02;;;;;;;24.13;19.33;;;-0.50;99.90;;;;;;5052248;28;20536;-51
2022/12/16 00:45:30;;;;;;;25.20;20.60;;;-0.50;99.90;;;;;;5052055;28;20556;-50
2022/12/16 00:47:58;;;;;;;32.60;22.07;;;-0.50;99.90;;;;;;5051752;28;20519;-50
2022/12/16 00:50:25;;;;;;;28.70;20.27;;;-0.60;99.90;;;;;;5052231;28;20817;-52
2022/12/16 00:52:52;;;;;;;32.83;23.90;;;-0.70;99.90;;;;;;5052019;28;20816;-46
2022/12/16 00:55:19;;;;;;;27.90;20.90;;;-0.90;99.90;;;;;;5050104;28;20526;-51
2022/12/16 00:57:46;;;;;;;24.40;18.20;;;-0.90;99.90;;;;;;5050211;28;20477;-51
2022/12/16 01:00:15;;;;;;;22.93;19.00;;;-0.70;99.90;;;;;;5050055;28;20520;-50
2022/12/16 01:02:44;;;;;;;23.87;19.77;;;-0.70;99.90;;;;;;5050187;28;20545;-51
2022/12/16 01:05:13;;;;;;;25.43;21.00;;;-0.60;99.90;;;;;;5049797;28;20541;-51
2022/12/16 01:07:40;;;;;;;25.57;20.30;;;-0.60;99.90;;;;;;5050496;28;20869;-53
2022/12/16 01:10:09;;;;;;;31.83;21.57;;;-0.50;99.90;;;;;;5051635;28;20517;-50
2022/12/16 01:12:36;;;;;;;28.43;20.10;;;-0.40;99.90;;;;;;5051514;28;20533;-50
2022/12/16 01:15:05;;;;;;;26.33;20.87;;;-0.50;99.90;;;;;;5051122;28;20500;-50
2022/12/16 01:17:32;;;;;;;27.80;21.20;;;-0.50;99.90;;;;;;5051536;28;20465;-50
2022/12/16 01:19:59;;;;;;;30.50;21.30;;;-0.40;99.90;;;;;;5051031;28;20959;-50
2022/12/16 01:22:30;;;;;;;30.73;20.03;;;-0.40;99.90;;;;;;5051920;28;20450;-50
2022/12/16 01:24:57;;;;;;;32.30;21.40;;;-0.30;99.90;;;;;;5051504;28;20473;-51
2022/12/16 01:27:24;;;;;;;25.83;20.50;;;-0.30;99.90;;;;;;5051107;28;20450;-51
2022/12/16 01:29:52;;;;;;;33.87;21.20;;;-0.30;99.90;;;;;;5050094;28;21068;-50
2022/12/16 01:32:19;;;;;;;22.67;19.30;;;-0.40;99.90;;;;;;5049468;28;20521;-50
2022/12/16 01:34:50;;;;;;;25.63;21.83;;;-0.50;99.90;;;;;;5049329;28;20561;-50
2022/12/16 01:37:17;;;;;;;25.70;20.90;;;-0.60;99.90;;;;;;5050062;28;20445;-51
2022/12/16 01:39:45;;;;;;;29.50;21.60;;;-0.50;99.90;;;;;;5049790;28;20966;-51
2022/12/16 01:42:13;;;;;;;28.63;21.30;;;-0.40;99.90;;;;;;5050047;28;20540;-50
2022/12/16 01:44:43;;;;;;;24.83;20.63;;;-0.30;99.90;;;;;;5050683;28;20990;-52
2022/12/16 01:47:15;;;;;;;24.43;20.23;;;-0.20;99.90;;;;;;5051094;28;20442;-51
2022/12/16 01:49:44;;;;;;;31.33;20.83;;;-0.20;99.90;;;;;;5051470;28;20564;-50
2022/12/16 01:52:18;;;;;;;24.87;21.47;;;-0.10;99.90;;;;;;5051127;28;20544;-50
2022/12/16 01:54:51;;;;;;;40.97;28.20;;;-0.10;99.90;;;;;;5050631;28;20554;-50
2022/12/16 01:57:23;;;;;;;30.77;20.87;;;-0.10;99.90;;;;;;5051375;28;20820;-50
2022/12/16 01:59:53;;;;;;;29.17;21.17;;;-0.10;99.90;;;;;;5051254;28;20442;-50
2022/12/16 02:02:20;;;;;;;33.17;26.03;;;-0.20;99.90;;;;;;5050353;28;20438;-53
2022/12/16 02:07:28;;;;;;;27.43;20.83;;;-0.20;99.90;;;;;;5049556;28;20433;-51
2022/12/16 02:09:58;;;;;;;26.27;19.53;;;-0.20;99.90;;;;;;5051463;28;20536;-50
2022/12/16 02:12:29;;;;;;;25.50;20.50;;;-0.20;99.90;;;;;;5051168;28;20490;-50
2022/12/16 02:15:21;;;;;;;24.90;19.57;;;-0.10;99.90;;;;;;5050756;28;20465;-52
2022/12/16 02:17:57;;;;;;;21.90;17.40;;;-0.10;99.90;;;;;;5051669;28;20528;-50
2022/12/16 02:21:15;;;;;;;22.57;17.80;;;-0.10;99.90;;;;;;5054873;28;20816;-50
2022/12/16 02:24:16;;;;;;;25.07;17.80;;;-0.20;99.90;;;;;;5054401;28;20524;-50
2022/12/16 02:27:16;;;;;;;23.40;19.97;;;-0.20;99.90;;;;;;5014424;28;20537;-52
2022/12/16 02:30:04;;;;;;;25.40;18.37;;;-0.20;99.90;;;;;;5054713;28;20473;-50
2022/12/16 02:32:45;;;;;;;30.23;19.20;;;-0.20;99.90;;;;;;5054606;28;20473;-50
2022/12/16 02:35:18;;;;;;;26.03;19.07;;;-0.20;99.90;;;;;;5055752;28;20560;-52
2022/12/16 02:37:52;;;;;;;25.77;19.90;;;-0.30;99.90;;;;;;5054433;28;21017;-50
2022/12/16 02:40:24;;;;;;;26.77;18.97;;;-0.30;99.90;;;;;;5054471;28;20440;-50
2022/12/16 02:42:56;;;;;;;27.67;18.23;;;-0.20;99.90;;;;;;5054268;28;20876;-48
2022/12/16 02:45:26;;;;;;;22.73;16.90;;;-0.30;99.90;;;;;;5054185;28;20493;-51
2022/12/16 02:47:54;;;;;;;22.43;18.43;;;-0.20;99.90;;;;;;5054482;28;20528;-51
2022/12/16 02:50:23;;;;;;;24.10;18.83;;;-0.20;99.90;;;;;;5052919;28;20568;-50
2022/12/16 02:52:52;;;;;;;21.27;16.80;;;-0.20;99.90;;;;;;5052849;28;20540;-54
2022/12/16 02:55:20;;;;;;;23.13;18.33;;;-0.10;99.90;;;;;;5052395;28;20545;-50
2022/12/16 02:58:05;;;;;;;24.30;16.90;;;-0.30;99.90;;;;;;5052766;28;20525;-52
2022/12/16 03:00:42;;;;;;;25.77;17.30;;;-0.40;99.90;;;;;;5052694;28;20441;-51
2022/12/16 03:03:16;;;;;;;22.27;17.50;;;-0.40;99.90;;;;;;5052451;28;20983;-51
2022/12/16 03:05:47;;;;;;;21.20;17.33;;;-0.30;99.90;;;;;;5053831;28;20548;-50
2022/12/16 03:08:19;;;;;;;22.20;16.87;;;-0.30;99.90;;;;;;5054264;28;20445;-50
2022/12/16 03:10:52;;;;;;;20.53;16.77;;;-0.30;99.90;;;;;;5054000;28;20484;-51
2022/12/16 03:13:21;;;;;;;26.20;18.70;;;-0.30;99.90;;;;;;5053584;28;20448;-50
2022/12/16 03:15:52;;;;;;;22.67;17.73;;;-0.30;99.90;;;;;;5053968;28;20866;-50
2022/12/16 03:18:21;;;;;;;24.37;19.10;;;-0.20;99.90;;;;;;5054116;28;20526;-50
2022/12/16 03:20:54;;;;;;;20.90;17.23;;;-0.20;99.90;;;;;;5053902;28;20448;-50
2022/12/16 03:23:27;;;;;;;22.63;16.57;;;-0.20;99.90;;;;;;5053613;28;20450;-50
2022/12/16 03:26:01;;;;;;;19.93;15.40;;;-0.40;99.90;;;;;;5053505;28;20466;-50
2022/12/16 03:28:36;;;;;;;21.93;16.33;;;-0.30;99.90;;;;;;5053151;28;20537;-50
2022/12/16 03:31:14;;;;;;;18.97;15.87;;;-0.40;99.90;;;;;;5051828;28;20817;-52
2022/12/16 03:33:49;;;;;;;29.87;16.80;;;-0.40;99.90;;;;;;5053630;28;20536;-50
2022/12/16 03:36:20;;;;;;;18.10;14.87;;;-0.20;99.90;;;;;;5046273;28;20484;-50
2022/12/16 03:38:49;;;;;;;21.20;16.97;;;-0.10;99.90;;;;;;5051072;28;20449;-50
2022/12/16 03:41:18;;;;;;;18.00;15.47;;;-0.30;99.90;;;;;;5052856;28;20525;-50
2022/12/16 03:43:47;;;;;;;19.60;15.30;;;-0.20;99.90;;;;;;5052533;28;20442;-50
2022/12/16 03:46:16;;;;;;;21.90;16.17;;;-0.40;99.90;;;;;;5042042;28;20459;-50
2022/12/16 03:48:49;;;;;;;21.10;16.87;;;-0.40;99.90;;;;;;5049121;28;20438;-51
2022/12/16 03:51:16;;;;;;;21.97;16.17;;;-0.40;99.90;;;;;;5051256;28;20528;-50
2022/12/16 03:53:43;;;;;;;19.43;15.40;;;-0.30;99.90;;;;;;5045889;28;20892;-52
2022/12/16 03:56:10;;;;;;;18.50;15.43;;;-0.30;99.90;;;;;;5044831;28;20552;-50
2022/12/16 03:58:38;;;;;;;24.13;17.07;;;-0.30;99.90;;;;;;5050977;28;20533;-52
2022/12/16 04:01:06;;;;;;;22.97;16.37;;;-0.20;99.90;;;;;;5050677;28;20468;-51
2022/12/16 04:03:32;;;;;;;25.70;18.00;;;-0.20;99.90;;;;;;5052327;28;20457;-51
2022/12/16 04:06:01;;;;;;;25.17;17.50;;;-0.30;99.90;;;;;;5052743;28;20536;-53
2022/12/16 04:08:28;;;;;;;19.27;16.93;;;-0.40;99.90;;;;;;5052330;28;20486;-50
2022/12/16 04:24:48;;;;;;;27.77;18.17;;;-0.40;99.90;;;;;;5050235;28;20461;-51
2022/12/16 04:27:24;;;;;;;21.50;16.30;;;-0.30;99.90;;;;;;5050975;28;20805;-50
